Oscoda, MI

6:44 AM EST on December 16, 2019 (GMT -0500)
Oscoda-Wurtsmith

Weather History for KOSC - October, 2019

Change the Weather History Date:

Thursday, October 17, 2019

  Actual Average Record
Temperature  
Mean Temperature 44 °F -  
Max Temperature 52 °F 54 °F 71 °F (1998)
Min Temperature 36 °F 37 °F 26 °F (2002)
Degree Days  
Heating Degree Days 21    
Moisture  
Dew Point 35 °F    
Average Humidity 73    
Maximum Humidity 91    
Minimum Humidity 55    
Precipitation  
Precipitation 0.00 in - - ()
Sea Level Pressure  
Sea Level Pressure 29.87 in    
Wind  
Wind Speed 14 mph (NW)    
Max Wind Speed 20 mph    
Max Gust Speed 29 mph    
Visibility 10 miles    
Events      
Averages and records for this station are not official NWS values.
T = Trace of Precipitation, MM = Missing Value Source: NWS Daily Summary

Daily Weather History Graph

Daily Weather History Graph

Search for Another Location

Airport or City:

Astronomy

Oct. 17, 2019 Rise Set
Actual Time 7:50 AM EDT 6:46 PM EDT
Civil Twilight 7:21 AM EDT 7:15 PM EDT
Nautical Twilight 6:47 AM EDT 7:49 PM EDT
Astronomical Twilight 6:14 AM EDT 8:22 PM EDT
Moon 9:09 PM EDT (10/17) 11:28 AM EDT (10/17)
Length of Visible Light 11h 54m
Length of Day
10h 55m
Waning Gibbous, 87% of the Moon is Illuminated
Oct 17
Waning Gibbous
Oct 21
Last Quarter
Oct 27
New
Nov 4
First Quarter
Nov 12
Full

Hourly Weather History & Observations

Time (EDT) Temp. Windchill Dew Point Humidity Pressure Visibility Wind Dir Wind Speed Gust Speed Precip Events Conditions
12:17 AM 42.8 °F 35.1 °F 38.3 °F 84% 29.75 in 10.0 mi NW 16.1 mph 21.9 mph N/A   Mostly Cloudy
12:35 AM 42.8 °F 35.1 °F 37.6 °F 82% 29.75 in 10.0 mi NNW 16.1 mph 23.0 mph N/A   Overcast
12:55 AM 43.0 °F 35.7 °F 37.4 °F 81% 29.75 in 10.0 mi NW 15.0 mph 27.6 mph N/A   Overcast
12:56 AM 43.0 °F 35.1 °F 37.6 °F 81% 29.75 in 10.0 mi NW 17.3 mph 27.6 mph N/A   Overcast
1:15 AM 43.0 °F 34.8 °F 37.2 °F 80% 29.76 in 10.0 mi NW 18.4 mph 24.2 mph N/A   Overcast
1:20 AM 43.0 °F 34.8 °F 36.9 °F 79% 29.76 in 10.0 mi NNW 18.4 mph 24.2 mph N/A   Overcast
1:38 AM 42.8 °F 34.5 °F 36.3 °F 78% 29.76 in 10.0 mi NNW 18.4 mph 27.6 mph N/A   Overcast
1:56 AM 42.1 °F 33.9 °F 35.6 °F 78% 29.77 in 10.0 mi NW 17.3 mph 26.5 mph N/A   Mostly Cloudy
2:15 AM 41.4 °F 32.7 °F 35.6 °F 80% 29.77 in 10.0 mi NNW 18.4 mph 25.3 mph N/A   Mostly Cloudy
2:16 AM 41.4 °F 32.7 °F 35.6 °F 80% 29.77 in 10.0 mi NW 18.4 mph 25.3 mph N/A   Mostly Cloudy
2:35 AM 41.4 °F 34.3 °F 35.6 °F 80% 29.77 in 10.0 mi NW 12.7 mph 20.7 mph N/A   Overcast
2:36 AM 41.4 °F 34.3 °F 35.6 °F 80% 29.78 in 10.0 mi NW 12.7 mph 20.7 mph N/A   Overcast
2:59 AM 41.2 °F 34.5 °F 35.4 °F 80% 29.78 in 10.0 mi NW 11.5 mph 19.6 mph N/A   Overcast
3:17 AM 41.2 °F 33.7 °F 35.6 °F 81% 29.78 in 10.0 mi NW 13.8 mph - N/A   Overcast
3:35 AM 41.0 °F 33.9 °F 35.2 °F 80% 29.78 in 10.0 mi NW 12.7 mph 18.4 mph N/A   Overcast
3:36 AM 41.0 °F 33.5 °F 35.2 °F 80% 29.78 in 10.0 mi NW 13.8 mph 18.4 mph N/A   Overcast
3:55 AM 41.5 °F 34.2 °F 35.1 °F 78% 29.78 in 10.0 mi NW 13.8 mph - N/A   Overcast
3:56 AM 41.7 °F 35.2 °F 35.1 °F 77% 29.78 in 10.0 mi NW 11.5 mph - N/A   Overcast
4:15 AM 41.9 °F 34.6 °F 35.2 °F 77% 29.79 in 10.0 mi NW 13.8 mph 20.7 mph N/A   Overcast
4:38 AM 42.1 °F 35.2 °F 35.2 °F 77% 29.79 in 10.0 mi NNW 12.7 mph - N/A   Overcast
4:56 AM 42.1 °F 34.9 °F 35.2 °F 77% 29.79 in 10.0 mi NW 13.8 mph 20.7 mph N/A   Overcast
5:15 AM 42.1 °F 33.9 °F 35.1 °F 76% 29.80 in 10.0 mi NW 17.3 mph 21.9 mph N/A   Overcast
5:16 AM 42.1 °F 34.2 °F 35.1 °F 76% 29.80 in 10.0 mi NW 16.1 mph 20.7 mph N/A   Overcast
5:35 AM 41.9 °F 33.7 °F 35.1 °F 77% 29.81 in 10.0 mi NW 17.3 mph 21.9 mph N/A   Overcast
5:59 AM 42.3 °F 33.8 °F 34.9 °F 75% 29.81 in 10.0 mi NW 18.4 mph 28.8 mph N/A   Overcast
6:17 AM 41.9 °F 34.6 °F 34.7 °F 76% 29.81 in 10.0 mi NW 13.8 mph 21.9 mph N/A   Overcast
6:35 AM 41.4 °F 33.6 °F 34.5 °F 77% 29.81 in 10.0 mi NW 15.0 mph 23.0 mph N/A   Mostly Cloudy
6:55 AM 41.0 °F 33.1 °F 34.5 °F 78% 29.81 in 10.0 mi NW 15.0 mph 19.6 mph N/A   Clear
6:56 AM 41.0 °F 33.5 °F 34.3 °F 77% 29.81 in 10.0 mi NW 13.8 mph 19.6 mph N/A   Clear
7:15 AM 40.6 °F 33.0 °F 34.3 °F 78% 29.82 in 10.0 mi NW 13.8 mph 17.3 mph N/A   Clear
7:20 AM 40.5 °F 33.2 °F 34.2 °F 78% 29.82 in 10.0 mi NNW 12.7 mph 18.4 mph N/A   Clear
7:38 AM 40.1 °F 33.2 °F 34.2 °F 79% 29.82 in 10.0 mi NW 11.5 mph - N/A   Clear
7:56 AM 40.1 °F 34.1 °F 34.2 °F 79% 29.83 in 10.0 mi NW 9.2 mph 17.3 mph N/A   Clear
8:15 AM 40.3 °F 33.4 °F 34.3 °F 79% 29.84 in 10.0 mi NW 11.5 mph 19.6 mph N/A   Clear
8:16 AM 40.3 °F 33.0 °F 34.3 °F 79% 29.84 in 10.0 mi NW 12.7 mph - N/A   Clear
8:35 AM 41.0 °F 34.3 °F 34.7 °F 78% 29.84 in 10.0 mi NW 11.5 mph - N/A   Clear
8:36 AM 41.0 °F 33.9 °F 34.7 °F 78% 29.84 in 10.0 mi NW 12.7 mph 17.3 mph N/A   Clear
8:59 AM 42.3 °F 36.8 °F 35.1 °F 76% 29.85 in 10.0 mi NW 9.2 mph 19.6 mph N/A   Clear
9:17 AM 43.0 °F 36.8 °F 35.2 °F 74% 29.85 in 10.0 mi NNW 11.5 mph 17.3 mph N/A   Scattered Clouds
9:35 AM 43.0 °F 36.0 °F 35.4 °F 75% 29.86 in 10.0 mi NNW 13.8 mph 20.7 mph N/A   Mostly Cloudy
9:36 AM 43.0 °F 35.7 °F 35.4 °F 75% 29.86 in 10.0 mi NW 15.0 mph 21.9 mph N/A   Mostly Cloudy
9:55 AM 43.2 °F 35.9 °F 35.4 °F 74% 29.86 in 10.0 mi NNW 15.0 mph 21.9 mph N/A   Overcast
9:56 AM 43.2 °F 36.2 °F 35.4 °F 74% 29.87 in 10.0 mi NNW 13.8 mph 21.9 mph N/A   Overcast
10:15 AM 43.9 °F 35.7 °F 35.8 °F 73% 29.87 in 10.0 mi NNW 19.6 mph 25.3 mph N/A   Overcast
10:20 AM 44.1 °F 37.1 °F 35.8 °F 73% 29.87 in 10.0 mi NNW 15.0 mph 25.3 mph N/A   Overcast
10:38 AM 44.6 °F 37.4 °F 35.8 °F 71% 29.88 in 10.0 mi NW 16.1 mph 24.2 mph N/A   Overcast
10:56 AM 45.5 °F 38.6 °F 36.7 °F 71% 29.88 in 10.0 mi NNW 16.1 mph 21.9 mph N/A   Overcast
11:15 AM 46.2 °F 39.0 °F 36.0 °F 67% 29.88 in 10.0 mi NNW 18.4 mph 25.3 mph N/A   Overcast
11:16 AM 46.0 °F 39.6 °F 36.0 °F 68% 29.88 in 10.0 mi NNW 15.0 mph 25.3 mph N/A   Mostly Cloudy
11:35 AM 46.4 °F 40.4 °F 36.0 °F 67% 29.88 in 10.0 mi NNW 13.8 mph 26.5 mph N/A   Mostly Cloudy
11:36 AM 46.6 °F - 36.0 °F 67% 29.88 in 10.0 mi NNW 17.3 mph 26.5 mph N/A   Mostly Cloudy
11:59 AM 46.9 °F - 36.0 °F 66% 29.88 in 10.0 mi NW 18.4 mph 23.0 mph N/A   Mostly Cloudy
12:17 PM 46.8 °F - 36.1 °F 67% 29.88 in 10.0 mi NW 16.1 mph 21.9 mph N/A   Overcast
12:36 PM 47.3 °F - 35.6 °F 64% 29.89 in 10.0 mi NW 15.0 mph 21.9 mph N/A   Overcast
12:55 PM 48.2 °F - 35.6 °F 62% 29.88 in 10.0 mi NNW 15.0 mph 21.9 mph N/A   Overcast
12:56 PM 48.0 °F - 35.6 °F 62% 29.88 in 10.0 mi NNW 16.1 mph 21.9 mph N/A   Overcast
1:15 PM 49.1 °F - 36.1 °F 61% 29.88 in 10.0 mi NNW 12.7 mph 21.9 mph N/A   Overcast
1:20 PM 49.8 °F - 37.0 °F 61% 29.88 in 10.0 mi NW 16.1 mph 19.6 mph N/A   Overcast
1:38 PM 48.7 °F - 35.6 °F 60% 29.88 in 10.0 mi NW 17.3 mph - N/A   Overcast
1:56 PM 49.8 °F - 35.6 °F 58% 29.88 in 10.0 mi NW 13.8 mph 20.7 mph N/A   Overcast
2:15 PM 48.7 °F - 35.4 °F 60% 29.88 in 10.0 mi NNW 13.8 mph 18.4 mph N/A   Overcast
2:35 PM 51.1 °F - 35.8 °F 56% 29.88 in 10.0 mi North 11.5 mph 16.1 mph N/A   Overcast
2:59 PM 49.5 °F - 35.4 °F 58% 29.88 in 10.0 mi NNW 11.5 mph 20.7 mph N/A   Mostly Cloudy
3:17 PM 52.0 °F - 36.3 °F 55% 29.88 in 10.0 mi NNW 6.9 mph - N/A   Mostly Cloudy
3:35 PM 51.4 °F - 36.1 °F 56% 29.88 in 10.0 mi NNW 11.5 mph - N/A   Mostly Cloudy
3:55 PM 51.1 °F - 35.6 °F 55% 29.89 in 10.0 mi NNW 9.2 mph 16.1 mph N/A   Overcast
4:15 PM 50.4 °F - 35.8 °F 57% 29.89 in 10.0 mi NW 12.7 mph 18.4 mph N/A   Overcast
4:20 PM 50.4 °F - 35.4 °F 57% 29.89 in 10.0 mi NNW 12.7 mph 18.4 mph N/A   Overcast
4:38 PM 50.0 °F - 34.7 °F 56% 29.90 in 10.0 mi NNW 10.4 mph 17.3 mph N/A   Overcast
4:56 PM 49.6 °F - 35.1 °F 57% 29.90 in 10.0 mi NNW 8.1 mph - N/A   Overcast
5:15 PM 49.6 °F - 35.1 °F 57% 29.91 in 10.0 mi NNW 6.9 mph - N/A   Overcast
5:16 PM 49.6 °F - 35.2 °F 58% 29.91 in 10.0 mi NNW 8.1 mph - N/A   Overcast
5:35 PM 49.3 °F - 35.4 °F 59% 29.91 in 10.0 mi NNW 9.2 mph - N/A   Overcast
5:36 PM 49.3 °F - 35.4 °F 59% 29.91 in 10.0 mi NNW 8.1 mph - N/A   Overcast
5:59 PM 48.6 °F - 35.4 °F 60% 29.92 in 10.0 mi NNW 9.2 mph - N/A   Overcast
6:16 PM 48.6 °F - 35.8 °F 61% 29.92 in 10.0 mi North 5.8 mph - N/A   Overcast
6:35 PM 46.9 °F - 36.5 °F 67% 29.93 in 10.0 mi North 8.1 mph - N/A   Mostly Cloudy
6:36 PM 46.9 °F - 36.5 °F 67% 29.93 in 10.0 mi North 8.1 mph - N/A   Mostly Cloudy
6:55 PM 47.1 °F - 36.3 °F 66% 29.94 in 10.0 mi NNW 6.9 mph - N/A   Overcast
7:15 PM 44.6 °F 43.1 °F 36.0 °F 72% 29.95 in 10.0 mi NW 3.5 mph - N/A   Scattered Clouds
7:38 PM 42.8 °F 40.1 °F 35.8 °F 76% 29.95 in 10.0 mi WNW 4.6 mph - N/A   Clear
7:56 PM 40.6 °F 37.5 °F 35.2 °F 81% 29.95 in 10.0 mi WNW 4.6 mph - N/A   Clear
8:15 PM 40.1 °F 36.1 °F 34.9 °F 82% 29.95 in 10.0 mi WNW 5.8 mph - N/A   Scattered Clouds
8:16 PM 40.1 °F 36.1 °F 34.9 °F 82% 29.95 in 10.0 mi WNW 5.8 mph - N/A   Scattered Clouds
8:35 PM 38.7 °F 33.6 °F 34.3 °F 84% 29.95 in 10.0 mi West 6.9 mph - N/A   Clear
8:59 PM 39.2 °F 35.0 °F 34.9 °F 84% 29.96 in 10.0 mi WNW 5.8 mph - N/A   Clear
9:17 PM 39.2 °F 35.0 °F 34.7 °F 84% 29.96 in 10.0 mi WNW 5.8 mph - N/A   Clear
9:35 PM 39.0 °F 34.8 °F 34.5 °F 84% 29.96 in 10.0 mi WNW 5.8 mph - N/A   Clear
9:36 PM 39.0 °F 34.8 °F 34.5 °F 84% 29.96 in 10.0 mi WNW 5.8 mph - N/A   Clear
9:55 PM 38.3 °F 33.9 °F 34.0 °F 84% 29.97 in 10.0 mi WNW 5.8 mph - N/A   Clear
9:56 PM 38.3 °F 33.9 °F 34.0 °F 84% 29.97 in 10.0 mi WNW 5.8 mph - N/A   Clear
10:15 PM 37.8 °F 34.2 °F 34.2 °F 87% 29.97 in 10.0 mi WNW 4.6 mph - N/A   Clear
10:38 PM 37.4 °F 32.8 °F 34.0 °F 87% 29.97 in 10.0 mi WNW 5.8 mph - N/A   Clear
10:55 PM 37.4 °F 32.8 °F 34.2 °F 88% 29.97 in 10.0 mi WNW 5.8 mph - N/A   Clear
11:15 PM 36.5 °F 31.0 °F 33.8 °F 90% 29.97 in 10.0 mi WNW 6.9 mph - N/A   Clear
11:16 PM 36.5 °F 31.0 °F 34.0 °F 91% 29.97 in 10.0 mi WNW 6.9 mph - N/A   Clear
11:35 PM 37.4 °F 32.1 °F 34.7 °F 90% 29.98 in 10.0 mi WNW 6.9 mph - N/A   Mostly Cloudy
11:59 PM 38.1 °F 32.3 °F 35.1 °F 89% 29.98 in 10.0 mi WNW 8.1 mph - N/A   Overcast